sensor_id;sensor_type;location;lat;lon;timestamp;pressure;altitude;pressure_sealevel;temperature;humidity
28911;BME280;16028;42.642;23.310;2023-01-24T00:02:19;94929.63;;;5.82;95.62
28911;BME280;16028;42.642;23.310;2023-01-24T00:04:46;94919.31;;;5.82;96.09
28911;BME280;16028;42.642;23.310;2023-01-24T00:07:13;94929.81;;;5.79;95.12
28911;BME280;16028;42.642;23.310;2023-01-24T00:09:40;94924.84;;;5.76;95.01
28911;BME280;16028;42.642;23.310;2023-01-24T00:12:07;94921.25;;;5.78;95.51
28911;BME280;16028;42.642;23.310;2023-01-24T00:14:33;94921.25;;;5.78;94.97
28911;BME280;16028;42.642;23.310;2023-01-24T00:17:00;94910.94;;;5.78;95.44
28911;BME280;16028;42.642;23.310;2023-01-24T00:19:26;94929.81;;;5.79;94.61
28911;BME280;16028;42.642;23.310;2023-01-24T00:21:53;94930.56;;;5.81;94.88
28911;BME280;16028;42.642;23.310;2023-01-24T00:24:19;94928.09;;;5.79;95.24
28911;BME280;16028;42.642;23.310;2023-01-24T00:26:47;94917.13;;;5.76;95.33
28911;BME280;16028;42.642;23.310;2023-01-24T00:29:14;94924.84;;;5.76;95.13
28911;BME280;16028;42.642;23.310;2023-01-24T00:31:40;94914.63;;;5.74;95.62
28911;BME280;16028;42.642;23.310;2023-01-24T00:34:06;94916.19;;;5.77;95.17
28911;BME280;16028;42.642;23.310;2023-01-24T00:36:33;94908.72;;;5.72;95.27
28911;BME280;16028;42.642;23.310;2023-01-24T00:38:59;94909.97;;;5.67;95.18
28911;BME280;16028;42.642;23.310;2023-01-24T00:41:26;94915.38;;;5.62;95.17
28911;BME280;16028;42.642;23.310;2023-01-24T00:43:54;94907.00;;;5.59;95.76
28911;BME280;16028;42.642;23.310;2023-01-24T00:46:20;94908.69;;;5.60;96.36
28911;BME280;16028;42.642;23.310;2023-01-24T00:48:47;94912.38;;;5.56;96.42
28911;BME280;16028;42.642;23.310;2023-01-24T00:51:13;94910.72;;;5.55;96.51
28911;BME280;16028;42.642;23.310;2023-01-24T00:53:40;94915.50;;;5.61;95.84
28911;BME280;16028;42.642;23.310;2023-01-24T00:56:06;94911.97;;;5.62;96.12
28911;BME280;16028;42.642;23.310;2023-01-24T00:58:33;94916.41;;;5.60;95.98
28911;BME280;16028;42.642;23.310;2023-01-24T01:01:01;94919.38;;;5.54;95.51
28911;BME280;16028;42.642;23.310;2023-01-24T01:03:28;94925.25;;;5.56;95.54
28911;BME280;16028;42.642;23.310;2023-01-24T01:05:58;94915.31;;;5.50;95.72
28911;BME280;16028;42.642;23.310;2023-01-24T01:08:25;94929.06;;;5.50;95.71
28911;BME280;16028;42.642;23.310;2023-01-24T01:10:52;94928.22;;;5.50;95.74
28911;BME280;16028;42.642;23.310;2023-01-24T01:13:18;94930.63;;;5.53;95.89
28911;BME280;16028;42.642;23.310;2023-01-24T01:15:44;94934.75;;;5.55;95.70
28911;BME280;16028;42.642;23.310;2023-01-24T01:18:12;94934.69;;;5.57;95.57
28911;BME280;16028;42.642;23.310;2023-01-24T01:20:39;94934.88;;;5.54;95.68
28911;BME280;16028;42.642;23.310;2023-01-24T01:23:05;94939.56;;;5.61;95.70
28911;BME280;16028;42.642;23.310;2023-01-24T01:25:32;94941.19;;;5.62;95.57
28911;BME280;16028;42.642;23.310;2023-01-24T01:27:58;94941.00;;;5.65;95.10
28911;BME280;16028;42.642;23.310;2023-01-24T01:30:25;94937.59;;;5.65;94.34
28911;BME280;16028;42.642;23.310;2023-01-24T01:32:51;94940.09;;;5.66;94.18
28911;BME280;16028;42.642;23.310;2023-01-24T01:35:19;94925.31;;;5.68;93.63
28911;BME280;16028;42.642;23.310;2023-01-24T01:37:46;94921.19;;;5.66;93.12
28911;BME280;16028;42.642;23.310;2023-01-24T01:40:13;94929.03;;;5.64;92.72
28911;BME280;16028;42.642;23.310;2023-01-24T01:42:44;94932.00;;;5.58;92.36
28911;BME280;16028;42.642;23.310;2023-01-24T01:45:29;94929.88;;;5.51;92.60
28911;BME280;16028;42.642;23.310;2023-01-24T01:47:56;94929.25;;;5.47;93.29
28911;BME280;16028;42.642;23.310;2023-01-24T01:50:26;94932.47;;;5.37;93.58
28911;BME280;16028;42.642;23.310;2023-01-24T01:52:53;94925.94;;;5.31;94.37
28911;BME280;16028;42.642;23.310;2023-01-24T01:55:20;94927.69;;;5.30;94.36
28911;BME280;16028;42.642;23.310;2023-01-24T01:57:48;94928.72;;;5.28;94.36
28911;BME280;16028;42.642;23.310;2023-01-24T02:00:16;94925.22;;;5.29;94.26
28911;BME280;16028;42.642;23.310;2023-01-24T02:02:44;94932.84;;;5.30;94.89
28911;BME280;16028;42.642;23.310;2023-01-24T02:05:13;94934.91;;;5.25;94.87
28911;BME280;16028;42.642;23.310;2023-01-24T02:07:42;94924.00;;;5.20;95.22
28911;BME280;16028;42.642;23.310;2023-01-24T02:10:10;94932.31;;;5.25;95.40
28911;BME280;16028;42.642;23.310;2023-01-24T02:12:38;94937.38;;;5.27;95.24
28911;BME280;16028;42.642;23.310;2023-01-24T02:15:06;94931.56;;;5.23;95.29
28911;BME280;16028;42.642;23.310;2023-01-24T02:17:51;94930.84;;;5.21;94.97
28911;BME280;16028;42.642;23.310;2023-01-24T02:20:21;94933.78;;;5.15;95.39
28911;BME280;16028;42.642;23.310;2023-01-24T02:22:54;94929.53;;;5.14;95.33
28911;BME280;16028;42.642;23.310;2023-01-24T02:25:26;94927.34;;;5.08;95.47
28911;BME280;16028;42.642;23.310;2023-01-24T02:27:56;94929.53;;;5.14;95.80
28911;BME280;16028;42.642;23.310;2023-01-24T02:30:23;94934.88;;;5.11;95.68
28911;BME280;16028;42.642;23.310;2023-01-24T02:32:50;94936.63;;;5.11;96.29
28911;BME280;16028;42.642;23.310;2023-01-24T02:35:24;94934.88;;;5.11;96.27
28911;BME280;16028;42.642;23.310;2023-01-24T02:37:51;94935.06;;;5.08;96.00
28911;BME280;16028;42.642;23.310;2023-01-24T02:40:18;94933.44;;;5.07;96.50
28911;BME280;16028;42.642;23.310;2023-01-24T02:42:44;94930.28;;;5.02;96.68
28911;BME280;16028;42.642;23.310;2023-01-24T02:45:14;94934.72;;;5.00;96.98
28911;BME280;16028;42.642;23.310;2023-01-24T02:47:44;94933.59;;;5.04;97.07
28911;BME280;16028;42.642;23.310;2023-01-24T02:50:11;94935.38;;;5.04;96.90
28911;BME280;16028;42.642;23.310;2023-01-24T02:52:37;94937.66;;;5.08;96.95
28911;BME280;16028;42.642;23.310;2023-01-24T02:55:22;94924.13;;;5.05;96.85
28911;BME280;16028;42.642;23.310;2023-01-24T02:57:49;94927.72;;;5.02;96.62
28911;BME280;16028;42.642;23.310;2023-01-24T03:00:35;94923.47;;;5.01;96.51
28911;BME280;16028;42.642;23.310;2023-01-24T03:03:01;94925.72;;;5.07;96.33
28911;BME280;16028;42.642;23.310;2023-01-24T03:05:28;94921.16;;;5.11;95.73
28911;BME280;16028;42.642;23.310;2023-01-24T03:08:05;94915.94;;;5.12;95.13
28911;BME280;16028;42.642;23.310;2023-01-24T03:10:32;94921.09;;;5.12;95.17
28911;BME280;16028;42.642;23.310;2023-01-24T03:12:58;94921.72;;;5.16;95.55
28911;BME280;16028;42.642;23.310;2023-01-24T03:15:43;94920.00;;;5.16;95.49
28911;BME280;16028;42.642;23.310;2023-01-24T03:18:27;94914.06;;;5.14;95.45
28911;BME280;16028;42.642;23.310;2023-01-24T03:21:11;94911.50;;;5.14;94.90
28911;BME280;16028;42.642;23.310;2023-01-24T03:23:55;94920.91;;;5.15;94.73
28911;BME280;16028;42.642;23.310;2023-01-24T03:26:39;94923.09;;;5.21;94.33
28911;BME280;16028;42.642;23.310;2023-01-24T03:29:23;94928.25;;;5.21;93.92
28911;BME280;16028;42.642;23.310;2023-01-24T03:32:09;94917.22;;;5.19;93.14
28911;BME280;16028;42.642;23.310;2023-01-24T03:34:53;94915.19;;;5.24;93.08
28911;BME280;16028;42.642;23.310;2023-01-24T03:37:20;94911.97;;;5.21;93.65
28911;BME280;16028;42.642;23.310;2023-01-24T03:40:10;94915.56;;;5.18;93.62
28911;BME280;16028;42.642;23.310;2023-01-24T03:42:35;94912.25;;;5.16;93.39
28911;BME280;16028;42.642;23.310;2023-01-24T03:45:13;94918.41;;;5.14;93.92
28911;BME280;16028;42.642;23.310;2023-01-24T03:47:45;94914.25;;;5.11;94.27
28911;BME280;16028;42.642;23.310;2023-01-24T03:50:19;94909.41;;;5.07;94.14
28911;BME280;16028;42.642;23.310;2023-01-24T03:53:04;94905.81;;;5.09;94.06
28911;BME280;16028;42.642;23.310;2023-01-24T03:55:31;94912.63;;;4.96;93.84
28911;BME280;16028;42.642;23.310;2023-01-24T03:57:57;94918.41;;;5.00;94.53
28911;BME280;16028;42.642;23.310;2023-01-24T04:00:24;94906.38;;;5.00;94.62
28911;BME280;16028;42.642;23.310;2023-01-24T04:02:52;94895.88;;;5.03;94.10
28911;BME280;16028;42.642;23.310;2023-01-24T04:05:19;94902.66;;;5.04;93.83
28911;BME280;16028;42.642;23.310;2023-01-24T04:07:45;94896.50;;;4.93;93.67
28911;BME280;16028;42.642;23.310;2023-01-24T04:10:12;94902.03;;;4.87;94.22
28911;BME280;16028;42.642;23.310;2023-01-24T04:12:38;94895.31;;;4.84;94.59
28911;BME280;16028;42.642;23.310;2023-01-24T04:15:05;94911.25;;;4.91;95.15
28911;BME280;16028;42.642;23.310;2023-01-24T04:17:32;94908.94;;;4.86;94.74
28911;BME280;16028;42.642;23.310;2023-01-24T04:20:00;94903.78;;;4.86;94.68
28911;BME280;16028;42.642;23.310;2023-01-24T04:22:27;94900.28;;;4.87;94.68
28911;BME280;16028;42.642;23.310;2023-01-24T04:24:54;94902.75;;;4.89;94.49
28911;BME280;16028;42.642;23.310;2023-01-24T04:27:21;94897.78;;;4.86;94.76
28911;BME280;16028;42.642;23.310;2023-01-24T04:29:47;94892.56;;;4.87;94.54
28911;BME280;16028;42.642;23.310;2023-01-24T04:32:14;94892.56;;;4.87;94.95
28911;BME280;16028;42.642;23.310;2023-01-24T04:34:40;94905.25;;;4.90;95.02
28911;BME280;16028;42.642;23.310;2023-01-24T04:37:08;94898.63;;;4.86;94.57
28911;BME280;16028;42.642;23.310;2023-01-24T04:39:34;94905.44;;;4.87;94.39
28911;BME280;16028;42.642;23.310;2023-01-24T04:42:01;94910.66;;;4.86;94.36
28911;BME280;16028;42.642;23.310;2023-01-24T04:44:27;94902.75;;;4.89;94.21
28911;BME280;16028;42.642;23.310;2023-01-24T04:46:54;94908.84;;;4.88;94.14
28911;BME280;16028;42.642;23.310;2023-01-24T04:49:20;94903.69;;;4.88;93.81
28911;BME280;16028;42.642;23.310;2023-01-24T04:51:47;94898.72;;;4.85;94.10
28911;BME280;16028;42.642;23.310;2023-01-24T04:54:15;94898.16;;;4.79;94.14
28911;BME280;16028;42.642;23.310;2023-01-24T04:56:42;94910.59;;;4.87;94.40
28911;BME280;16028;42.642;23.310;2023-01-24T04:59:10;94910.13;;;4.80;94.43
28911;BME280;16028;42.642;23.310;2023-01-24T05:01:36;94900.72;;;4.79;94.54
28911;BME280;16028;42.642;23.310;2023-01-24T05:04:03;94909.75;;;4.87;94.25
28911;BME280;16028;42.642;23.310;2023-01-24T05:06:30;94916.84;;;4.83;94.42
28911;BME280;16028;42.642;23.310;2023-01-24T05:08:57;94925.22;;;4.87;94.32
28911;BME280;16028;42.642;23.310;2023-01-24T05:11:25;94930.31;;;4.88;94.01
28911;BME280;16028;42.642;23.310;2023-01-24T05:13:52;94925.22;;;4.87;93.71
28911;BME280;16028;42.642;23.310;2023-01-24T05:16:18;94934.34;;;4.92;93.66
28911;BME280;16028;42.642;23.310;2023-01-24T05:18:45;94933.78;;;4.87;93.35
28911;BME280;16028;42.642;23.310;2023-01-24T05:21:12;94940.75;;;4.85;93.88
28911;BME280;16028;42.642;23.310;2023-01-24T05:23:39;94951.66;;;4.90;93.96
28911;BME280;16028;42.642;23.310;2023-01-24T05:26:06;94960.47;;;4.86;93.64
28911;BME280;16028;42.642;23.310;2023-01-24T05:28:34;94960.47;;;4.86;94.95
28911;BME280;16028;42.642;23.310;2023-01-24T05:31:02;94969.88;;;4.87;94.43
28911;BME280;16028;42.642;23.310;2023-01-24T05:33:29;94971.63;;;4.87;93.80
28911;BME280;16028;42.642;23.310;2023-01-24T05:35:56;94961.38;;;4.85;94.21
28911;BME280;16028;42.642;23.310;2023-01-24T05:38:23;94967.94;;;4.91;93.63
28911;BME280;16028;42.642;23.310;2023-01-24T05:40:49;94968.50;;;4.96;93.58
28911;BME280;16028;42.642;23.310;2023-01-24T05:43:16;94971.53;;;4.88;93.39
28911;BME280;16028;42.642;23.310;2023-01-24T05:45:43;94966.53;;;4.85;93.84
28911;BME280;16028;42.642;23.310;2023-01-24T05:48:10;94971.63;;;4.87;93.90
28911;BME280;16028;42.642;23.310;2023-01-24T05:50:36;94972.53;;;4.86;94.36
28911;BME280;16028;42.642;23.310;2023-01-24T05:53:03;94975.09;;;4.86;95.08
28911;BME280;16028;42.642;23.310;2023-01-24T05:55:29;94978.50;;;4.86;95.29
28911;BME280;16028;42.642;23.310;2023-01-24T05:57:57;94982.75;;;4.87;94.30
28911;BME280;16028;42.642;23.310;2023-01-24T06:00:24;94989.00;;;4.83;95.26
28911;BME280;16028;42.642;23.310;2023-01-24T06:02:52;94984.22;;;4.77;95.35
28911;BME280;16028;42.642;23.310;2023-01-24T06:05:19;94984.94;;;4.79;95.26
28911;BME280;16028;42.642;23.310;2023-01-24T06:07:46;94983.13;;;4.81;95.34
28911;BME280;16028;42.642;23.310;2023-01-24T06:10:12;94993.03;;;4.73;95.92
28911;BME280;16028;42.642;23.310;2023-01-24T06:12:39;94993.97;;;4.72;96.38
28911;BME280;16028;42.642;23.310;2023-01-24T06:15:06;94989.72;;;4.85;94.77
28911;BME280;16028;42.642;23.310;2023-01-24T06:17:32;94999.66;;;4.77;95.24
28911;BME280;16028;42.642;23.310;2023-01-24T06:20:00;94999.75;;;4.75;96.33
28911;BME280;16028;42.642;23.310;2023-01-24T06:22:28;94987.50;;;4.79;96.04
28911;BME280;16028;42.642;23.310;2023-01-24T06:24:58;95002.25;;;4.77;95.38
28911;BME280;16028;42.642;23.310;2023-01-24T06:27:24;95011.81;;;4.75;96.38
28911;BME280;16028;42.642;23.310;2023-01-24T06:29:51;95011.53;;;4.79;96.25
28911;BME280;16028;42.642;23.310;2023-01-24T06:32:20;95018.09;;;4.85;96.20
28911;BME280;16028;42.642;23.310;2023-01-24T06:34:57;95017.06;;;4.73;96.21
28911;BME280;16028;42.642;23.310;2023-01-24T06:37:31;95021.16;;;4.62;97.34
28911;BME280;16028;42.642;23.310;2023-01-24T06:40:00;95024.59;;;4.62;97.71
28911;BME280;16028;42.642;23.310;2023-01-24T06:42:27;95024.81;;;4.58;97.79
28911;BME280;16028;42.642;23.310;2023-01-24T06:44:54;95024.34;;;4.51;99.28
28911;BME280;16028;42.642;23.310;2023-01-24T06:47:20;95046.03;;;4.47;99.63
28911;BME280;16028;42.642;23.310;2023-01-24T06:49:48;95041.16;;;4.43;100.00
28911;BME280;16028;42.642;23.310;2023-01-24T06:52:15;95035.59;;;4.35;100.00
28911;BME280;16028;42.642;23.310;2023-01-24T06:54:43;95040.69;;;4.20;100.00
28911;BME280;16028;42.642;23.310;2023-01-24T06:57:09;95043.66;;;4.13;100.00
28911;BME280;16028;42.642;23.310;2023-01-24T06:59:36;95042.25;;;4.07;100.00
28911;BME280;16028;42.642;23.310;2023-01-24T07:02:02;95052.06;;;4.01;100.00
28911;BME280;16028;42.642;23.310;2023-01-24T07:04:29;95047.81;;;4.00;100.00
28911;BME280;16028;42.642;23.310;2023-01-24T07:06:55;95054.03;;;3.96;100.00
28911;BME280;16028;42.642;23.310;2023-01-24T07:09:22;95044.84;;;3.92;100.00
28911;BME280;16028;42.642;23.310;2023-01-24T07:11:50;95048.09;;;3.95;100.00
28911;BME280;16028;42.642;23.310;2023-01-24T07:14:20;95054.88;;;3.96;100.00
28911;BME280;16028;42.642;23.310;2023-01-24T07:16:47;95059.94;;;3.98;100.00
28911;BME280;16028;42.642;23.310;2023-01-24T07:19:15;95055.81;;;3.95;100.00
28911;BME280;16028;42.642;23.310;2023-01-24T07:21:42;95057.44;;;3.96;100.00
28911;BME280;16028;42.642;23.310;2023-01-24T07:24:09;95056.53;;;3.97;100.00
28911;BME280;16028;42.642;23.310;2023-01-24T07:26:38;95066.09;;;3.95;100.00
28911;BME280;16028;42.642;23.310;2023-01-24T07:29:06;95064.94;;;4.01;100.00
28911;BME280;16028;42.642;23.310;2023-01-24T07:31:33;95060.63;;;4.01;100.00
28911;BME280;16028;42.642;23.310;2023-01-24T07:33:59;95067.16;;;4.07;100.00
28911;BME280;16028;42.642;23.310;2023-01-24T07:36:26;95066.34;;;4.06;100.00
28911;BME280;16028;42.642;23.310;2023-01-24T07:38:53;95070.41;;;4.10;100.00
28911;BME280;16028;42.642;23.310;2023-01-24T07:41:20;95070.81;;;4.03;100.00
28911;BME280;16028;42.642;23.310;2023-01-24T07:43:46;95086.44;;;4.00;100.00
28911;BME280;16028;42.642;23.310;2023-01-24T07:46:14;95083.13;;;3.98;100.00
28911;BME280;16028;42.642;23.310;2023-01-24T07:48:40;95084.91;;;3.96;100.00
28911;BME280;16028;42.642;23.310;2023-01-24T07:51:07;95082.50;;;3.93;100.00
28911;BME280;16028;42.642;23.310;2023-01-24T07:53:34;95085.25;;;3.90;100.00
28911;BME280;16028;42.642;23.310;2023-01-24T07:56:01;95086.09;;;3.90;100.00
28911;BME280;16028;42.642;23.310;2023-01-24T07:58:27;95091.31;;;3.89;100.00
28911;BME280;16028;42.642;23.310;2023-01-24T08:00:54;95096.38;;;3.90;100.00
28911;BME280;16028;42.642;23.310;2023-01-24T08:03:22;95098.13;;;3.90;100.00
28911;BME280;16028;42.642;23.310;2023-01-24T08:05:48;95102.47;;;3.89;100.00
28911;BME280;16028;42.642;23.310;2023-01-24T08:08:14;95094.47;;;3.94;100.00
28911;BME280;16028;42.642;23.310;2023-01-24T08:10:41;95093.63;;;3.93;100.00
28911;BME280;16028;42.642;23.310;2023-01-24T08:13:07;95094.47;;;3.94;100.00
28911;BME280;16028;42.642;23.310;2023-01-24T08:15:34;95100.47;;;3.94;100.00
28911;BME280;16028;42.642;23.310;2023-01-24T08:18:01;95094.47;;;3.94;100.00
28911;BME280;16028;42.642;23.310;2023-01-24T08:20:28;95099.72;;;3.92;100.00
28911;BME280;16028;42.642;23.310;2023-01-24T08:22:55;95100.78;;;3.88;100.00
28911;BME280;16028;42.642;23.310;2023-01-24T08:25:21;95097.94;;;3.93;100.00
28911;BME280;16028;42.642;23.310;2023-01-24T08:27:48;95098.94;;;3.90;100.00
28911;BME280;16028;42.642;23.310;2023-01-24T08:30:14;95111.06;;;3.88;100.00
28911;BME280;16028;42.642;23.310;2023-01-24T08:32:41;95107.44;;;3.92;100.00
28911;BME280;16028;42.642;23.310;2023-01-24T08:35:08;95104.34;;;3.86;100.00
28911;BME280;16028;42.642;23.310;2023-01-24T08:37:36;95108.56;;;3.87;100.00
28911;BME280;16028;42.642;23.310;2023-01-24T08:40:03;95111.16;;;3.87;100.00
28911;BME280;16028;42.642;23.310;2023-01-24T08:42:29;95110.41;;;3.85;100.00
28911;BME280;16028;42.642;23.310;2023-01-24T08:44:56;95106.25;;;3.82;100.00
28911;BME280;16028;42.642;23.310;2023-01-24T08:47:22;95114.72;;;3.84;100.00
28911;BME280;16028;42.642;23.310;2023-01-24T08:49:48;95116.63;;;3.81;100.00
28911;BME280;16028;42.642;23.310;2023-01-24T08:52:15;95114.88;;;3.81;100.00
28911;BME280;16028;42.642;23.310;2023-01-24T08:54:43;95119.88;;;3.84;100.00
28911;BME280;16028;42.642;23.310;2023-01-24T08:57:10;95118.97;;;3.85;100.00
28911;BME280;16028;42.642;23.310;2023-01-24T08:59:36;95123.34;;;3.83;100.00
28911;BME280;16028;42.642;23.310;2023-01-24T09:02:03;95114.13;;;3.79;100.00
28911;BME280;16028;42.642;23.310;2023-01-24T09:04:30;95116.78;;;3.78;100.00
28911;BME280;16028;42.642;23.310;2023-01-24T09:06:56;95116.78;;;3.78;100.00
28911;BME280;16028;42.642;23.310;2023-01-24T09:09:23;95116.09;;;3.74;100.00
28911;BME280;16028;42.642;23.310;2023-01-24T09:11:53;95116.56;;;3.82;100.00
28911;BME280;16028;42.642;23.310;2023-01-24T09:14:19;95108.81;;;3.82;100.00
28911;BME280;16028;42.642;23.310;2023-01-24T09:16:45;95113.19;;;3.80;100.00
28911;BME280;16028;42.642;23.310;2023-01-24T09:19:12;95118.03;;;3.86;100.00
28911;BME280;16028;42.642;23.310;2023-01-24T09:21:38;95115.31;;;3.89;100.00
28911;BME280;16028;42.642;23.310;2023-01-24T09:24:05;95116.97;;;3.90;100.00
28911;BME280;16028;42.642;23.310;2023-01-24T09:26:32;95119.47;;;3.92;100.00
28911;BME280;16028;42.642;23.310;2023-01-24T09:29:00;95118.53;;;3.93;100.00
28911;BME280;16028;42.642;23.310;2023-01-24T09:31:26;95118.38;;;3.96;100.00
28911;BME280;16028;42.642;23.310;2023-01-24T09:33:53;95110.25;;;4.03;100.00
28911;BME280;16028;42.642;23.310;2023-01-24T09:36:19;95111.78;;;4.07;100.00
28911;BME280;16028;42.642;23.310;2023-01-24T09:38:46;95107.63;;;4.05;100.00
28911;BME280;16028;42.642;23.310;2023-01-24T09:41:15;95112.59;;;3.92;100.00
28911;BME280;16028;42.642;23.310;2023-01-24T09:43:46;95105.84;;;3.90;100.00
28911;BME280;16028;42.642;23.310;2023-01-24T09:46:16;95106.19;;;3.99;100.00
28911;BME280;16028;42.642;23.310;2023-01-24T09:48:45;95105.94;;;3.88;100.00
28911;BME280;16028;42.642;23.310;2023-01-24T09:51:13;95112.66;;;3.91;100.00
28911;BME280;16028;42.642;23.310;2023-01-24T09:53:41;95105.28;;;4.00;100.00
28911;BME280;16028;42.642;23.310;2023-01-24T09:56:09;95097.78;;;3.96;100.00
28911;BME280;16028;42.642;23.310;2023-01-24T09:58:47;95097.66;;;3.99;100.00
28911;BME280;16028;42.642;23.310;2023-01-24T10:01:21;95103.34;;;3.88;100.00
28911;BME280;16028;42.642;23.310;2023-01-24T10:03:47;95101.53;;;3.90;100.00
28911;BME280;16028;42.642;23.310;2023-01-24T10:06:14;95096.97;;;3.95;100.00
28911;BME280;16028;42.642;23.310;2023-01-24T10:08:44;95097.72;;;3.97;100.00
28911;BME280;16028;42.642;23.310;2023-01-24T10:11:16;95094.97;;;4.00;100.00
28911;BME280;16028;42.642;23.310;2023-01-24T10:16:39;95085.84;;;4.10;100.00
28911;BME280;16028;42.642;23.310;2023-01-24T10:19:10;95088.16;;;4.15;100.00
28911;BME280;16028;42.642;23.310;2023-01-24T10:21:49;95086.69;;;4.26;100.00
28911;BME280;16028;42.642;23.310;2023-01-24T10:24:24;95083.44;;;4.23;100.00
28911;BME280;16028;42.642;23.310;2023-01-24T10:26:53;95085.03;;;4.25;100.00
28911;BME280;16028;42.642;23.310;2023-01-24T10:29:20;95080.78;;;4.24;100.00
28911;BME280;16028;42.642;23.310;2023-01-24T10:31:51;95073.66;;;4.14;100.00
28911;BME280;16028;42.642;23.310;2023-01-24T10:34:20;95071.09;;;4.14;100.00
28911;BME280;16028;42.642;23.310;2023-01-24T10:36:51;95082.28;;;4.13;100.00
28911;BME280;16028;42.642;23.310;2023-01-24T10:39:19;95080.13;;;4.21;100.00
28911;BME280;16028;42.642;23.310;2023-01-24T10:41:45;95073.66;;;4.30;100.00
28911;BME280;16028;42.642;23.310;2023-01-24T10:44:13;95068.50;;;4.30;100.00
28911;BME280;16028;42.642;23.310;2023-01-24T10:46:59;95070.25;;;4.29;100.00
28911;BME280;16028;42.642;23.310;2023-01-24T10:49:30;95075.38;;;4.29;100.00
28911;BME280;16028;42.642;23.310;2023-01-24T10:52:10;95071.25;;;4.26;100.00
28911;BME280;16028;42.642;23.310;2023-01-24T10:54:41;95069.66;;;4.24;100.00
28911;BME280;16028;42.642;23.310;2023-01-24T10:57:11;95068.41;;;4.31;100.00
28911;BME280;16028;42.642;23.310;2023-01-24T10:59:41;95065.03;;;4.31;100.00
28911;BME280;16028;42.642;23.310;2023-01-24T11:02:09;95065.66;;;4.34;100.00
28911;BME280;16028;42.642;23.310;2023-01-24T11:04:44;95065.03;;;4.31;100.00
28911;BME280;16028;42.642;23.310;2023-01-24T11:07:19;95064.34;;;4.27;100.00
28911;BME280;16028;42.642;23.310;2023-01-24T11:09:52;95073.31;;;4.36;100.00
28911;BME280;16028;42.642;23.310;2023-01-24T11:12:18;95066.00;;;4.28;100.00
28911;BME280;16028;42.642;23.310;2023-01-24T11:14:47;95063.75;;;4.22;100.00
28911;BME280;16028;42.642;23.310;2023-01-24T11:17:27;95060.28;;;4.23;100.00
28911;BME280;16028;42.642;23.310;2023-01-24T11:19:57;95061.28;;;4.20;100.00
28911;BME280;16028;42.642;23.310;2023-01-24T11:22:24;95054.47;;;4.19;100.00
28911;BME280;16028;42.642;23.310;2023-01-24T11:25:03;95054.47;;;4.19;100.00
28911;BME280;16028;42.642;23.310;2023-01-24T11:27:44;95048.91;;;4.11;100.00
28911;BME280;16028;42.642;23.310;2023-01-24T11:30:14;95047.63;;;4.18;100.00
28911;BME280;16028;42.642;23.310;2023-01-24T11:32:44;95051.31;;;4.14;100.00
28911;BME280;16028;42.642;23.310;2023-01-24T11:35:12;95041.03;;;4.14;100.00
28911;BME280;16028;42.642;23.310;2023-01-24T11:37:50;95040.19;;;4.14;100.00
28911;BME280;16028;42.642;23.310;2023-01-24T11:40:22;95042.94;;;4.11;100.00
28911;BME280;16028;42.642;23.310;2023-01-24T11:42:54;95040.53;;;4.08;100.00
28911;BME280;16028;42.642;23.310;2023-01-24T11:45:29;95034.72;;;4.04;100.00
28911;BME280;16028;42.642;23.310;2023-01-24T11:48:04;95033.13;;;4.02;100.00
28911;BME280;16028;42.642;23.310;2023-01-24T11:50:41;95038.03;;;4.06;100.00
28911;BME280;16028;42.642;23.310;2023-01-24T11:53:16;95036.94;;;4.10;100.00
28911;BME280;16028;42.642;23.310;2023-01-24T11:55:52;95032.69;;;4.09;100.00
28911;BME280;16028;42.642;23.310;2023-01-24T11:58:29;95031.13;;;4.07;100.00
28911;BME280;16028;42.642;23.310;2023-01-24T12:01:01;95035.94;;;4.13;100.00
28911;BME280;16028;42.642;23.310;2023-01-24T12:03:38;95030.28;;;4.22;100.00
28911;BME280;16028;42.642;23.310;2023-01-24T12:06:12;95031.84;;;4.24;100.00
28911;BME280;16028;42.642;23.310;2023-01-24T12:11:25;95036.78;;;4.13;100.00
28911;BME280;16028;42.642;23.310;2023-01-24T12:13:56;95044.56;;;4.12;100.00
28911;BME280;16028;42.642;23.310;2023-01-24T12:16:29;95045.41;;;4.12;100.00
28911;BME280;16028;42.642;23.310;2023-01-24T12:19:15;95043.50;;;4.16;100.00
28911;BME280;16028;42.642;23.310;2023-01-24T12:21:48;95038.63;;;4.11;100.00
28911;BME280;16028;42.642;23.310;2023-01-24T12:24:15;95044.91;;;4.21;100.00
28911;BME280;16028;42.642;23.310;2023-01-24T12:26:45;95048.81;;;4.13;100.00
28911;BME280;16028;42.642;23.310;2023-01-24T12:29:15;95046.16;;;4.14;100.00
28911;BME280;16028;42.642;23.310;2023-01-24T12:31:45;95042.50;;;4.18;100.00
28911;BME280;16028;42.642;23.310;2023-01-24T12:34:19;95043.50;;;4.16;100.00
28911;BME280;16028;42.642;23.310;2023-01-24T12:36:54;95037.50;;;4.15;100.00
28911;BME280;16028;42.642;23.310;2023-01-24T12:39:23;95048.56;;;4.17;100.00
28911;BME280;16028;42.642;23.310;2023-01-24T12:41:54;95048.66;;;4.16;100.00
28911;BME280;16028;42.642;23.310;2023-01-24T12:44:24;95055.03;;;4.09;100.00
28911;BME280;16028;42.642;23.310;2023-01-24T12:49:38;95047.97;;;4.12;100.00
28911;BME280;16028;42.642;23.310;2023-01-24T12:52:12;95042.75;;;4.14;100.00
28911;BME280;16028;42.642;23.310;2023-01-24T12:54:42;95043.59;;;4.14;100.00
28911;BME280;16028;42.642;23.310;2023-01-24T12:57:13;95040.03;;;4.17;100.00
28911;BME280;16028;42.642;23.310;2023-01-24T12:59:42;95041.38;;;4.08;100.00
28911;BME280;16028;42.642;23.310;2023-01-24T13:04:57;95039.03;;;4.04;100.00
28911;BME280;16028;42.642;23.310;2023-01-24T13:07:31;95046.50;;;4.08;100.00
28911;BME280;16028;42.642;23.310;2023-01-24T13:10:04;95044.75;;;4.09;100.00
28911;BME280;16028;42.642;23.310;2023-01-24T13:12:35;95043.66;;;4.13;100.00
28911;BME280;16028;42.642;23.310;2023-01-24T13:15:03;95043.09;;;4.08;100.00
28911;BME280;16028;42.642;23.310;2023-01-24T13:17:51;95047.31;;;4.09;100.00